Time;durP1;ratioP1;P1;durP2;ratioP2;P2;SDS_P1;SDS_P2;PMS_P1;PMS_P2;Temp;Humidity;BMP_temperature;BMP_pressure;BME280_temperature;BME280_humidity;BME280_pressure;Samples;Min_cycle;Max_cycle;Signal;HPM_P1;HPM_P2
2021/03/04 00:01:18;;;;;;;8.03;4.23;;;;;;;-0.74;71.23;96564.47;1707867;84;21125;-69
2021/03/04 00:03:47;;;;;;;9.43;5.07;;;;;;;-0.75;71.81;96549.33;1708051;84;21621;-69
2021/03/04 00:06:15;;;;;;;10.60;5.27;;;;;;;-0.73;72.25;96547.69;1708173;84;21144;-70
2021/03/04 00:08:43;;;;;;;12.93;6.07;;;;;;;-0.72;71.94;96551.16;1707938;84;21148;-69
2021/03/04 00:11:11;;;;;;;8.47;4.87;;;;;;;-0.67;71.73;96544.45;1708102;84;21631;-69
2021/03/04 00:13:38;;;;;;;8.20;4.60;;;;;;;-0.75;73.07;96540.27;1707978;84;21155;-69
2021/03/04 00:16:07;;;;;;;14.37;7.07;;;;;;;-0.71;72.49;96536.08;1710123;82;21610;-69
2021/03/04 00:18:35;;;;;;;15.47;6.33;;;;;;;-0.64;72.65;96532.91;1717049;84;21131;-69
2021/03/04 00:21:04;;;;;;;7.40;4.43;;;;;;;-0.66;73.27;96529.36;1716393;84;21188;-69
2021/03/04 00:23:31;;;;;;;12.47;6.03;;;;;;;-0.62;73.16;96531.69;1716427;84;21171;-69
2021/03/04 00:25:59;;;;;;;10.73;6.33;;;;;;;-0.62;72.51;96523.48;1716310;84;21630;-69
2021/03/04 00:28:27;;;;;;;13.43;6.67;;;;;;;-0.53;72.19;96527.75;1716154;84;21172;-69
2021/03/04 00:30:55;;;;;;;12.63;6.07;;;;;;;-0.44;72.00;96520.30;1716754;84;21147;-69
2021/03/04 00:33:25;;;;;;;10.37;5.60;;;;;;;-0.41;71.58;96510.47;1716334;84;21180;-70
2021/03/04 00:35:52;;;;;;;10.20;5.70;;;;;;;-0.41;71.68;96506.99;1716645;84;21165;-69
2021/03/04 00:38:21;;;;;;;9.47;5.27;;;;;;;-0.35;71.83;96500.34;1716270;84;21140;-69
2021/03/04 00:40:49;;;;;;;10.60;5.27;;;;;;;-0.37;71.84;96498.09;1716340;84;21602;-69
2021/03/04 00:43:17;;;;;;;10.43;5.30;;;;;;;-0.48;71.57;96487.72;1716106;84;21123;-69
2021/03/04 00:45:47;;;;;;;9.53;5.57;;;;;;;-0.48;71.60;96485.13;1716354;84;21136;-69
2021/03/04 00:48:18;;;;;;;9.77;4.70;;;;;;;-0.45;71.23;96487.86;1716406;84;21159;-69
2021/03/04 00:50:46;;;;;;;10.90;5.63;;;;;;;-0.48;70.95;96486.03;1716236;84;21617;-69
2021/03/04 00:53:14;;;;;;;11.67;5.60;;;;;;;-0.50;71.15;96485.09;1716640;84;21143;-69
2021/03/04 00:55:43;;;;;;;10.77;5.63;;;;;;;-0.48;71.25;96487.72;1716739;84;21188;-69
2021/03/04 00:58:11;;;;;;;4.30;3.00;;;;;;;-0.48;70.97;96487.33;1716237;84;21155;-69
2021/03/04 01:00:41;;;;;;;8.73;4.57;;;;;;;-0.53;71.13;96479.80;1716521;84;21196;-69
2021/03/04 01:03:09;;;;;;;7.00;3.77;;;;;;;-0.62;71.75;96475.54;1716321;84;21160;-69
2021/03/04 01:05:37;;;;;;;9.97;4.87;;;;;;;-0.73;72.06;96471.63;1716373;84;21136;-69
2021/03/04 01:08:05;;;;;;;6.23;3.70;;;;;;;-0.79;71.81;96474.88;1716462;84;21164;-69
2021/03/04 01:10:37;;;;;;;9.60;4.60;;;;;;;-0.90;72.98;96473.17;1716124;83;21562;-69
2021/03/04 01:13:08;;;;;;;10.60;5.37;;;;;;;-0.90;72.96;96467.98;1716745;84;21163;-69
2021/03/04 01:15:36;;;;;;;9.13;4.70;;;;;;;-0.87;72.99;96464.63;1716334;84;21597;-69
2021/03/04 01:18:06;;;;;;;13.27;6.27;;;;;;;-1.00;74.36;96462.39;1706896;84;21167;-69
2021/03/04 01:20:35;;;;;;;11.93;6.70;;;;;;;-1.05;74.65;96460.91;1707919;84;21558;-69
2021/03/04 01:23:03;;;;;;;16.13;7.10;;;;;;;-1.08;74.43;96460.79;1707877;82;21594;-69
2021/03/04 01:25:32;;;;;;;9.07;5.47;;;;;;;-1.01;74.36;96451.12;1708015;84;21176;-69
2021/03/04 01:28:01;;;;;;;11.80;6.03;;;;;;;-0.93;73.53;96449.73;1707875;84;21148;-69
2021/03/04 01:30:32;;;;;;;12.50;5.67;;;;;;;-0.79;73.24;96439.02;1708061;84;21196;-69
2021/03/04 01:33:01;;;;;;;9.20;4.90;;;;;;;-0.80;73.37;96434.25;1705314;84;21176;-69
2021/03/04 01:35:31;;;;;;;10.03;5.33;;;;;;;-0.94;73.92;96435.00;1707928;84;21180;-69
2021/03/04 01:37:59;;;;;;;23.20;10.10;;;;;;;-0.94;73.37;96435.42;1708223;84;21294;-69
2021/03/04 01:40:27;;;;;;;11.20;5.40;;;;;;;-0.95;73.16;96435.84;1707923;84;21168;-69
2021/03/04 01:42:55;;;;;;;6.67;2.30;;;;;;;-0.96;73.18;96428.91;1708161;84;21283;-69
2021/03/04 01:45:23;;;;;;;10.03;5.20;;;;;;;-1.04;73.19;96425.52;1708067;84;21606;-69
2021/03/04 01:47:54;;;;;;;11.40;6.50;;;;;;;-1.11;73.17;96418.82;1707905;84;21168;-69
2021/03/04 01:50:25;;;;;;;9.97;6.37;;;;;;;-1.04;73.38;96411.28;1708095;84;21152;-69
2021/03/04 01:52:54;;;;;;;11.57;6.10;;;;;;;-0.97;73.19;96405.09;1707738;84;21159;-69
2021/03/04 01:55:23;;;;;;;10.43;5.43;;;;;;;-0.92;73.17;96394.50;1707963;84;21116;-69
2021/03/04 01:57:56;;;;;;;9.40;5.00;;;;;;;-0.85;72.97;96390.86;1707931;84;21168;-69
2021/03/04 02:00:24;;;;;;;4.80;2.13;;;;;;;-0.88;72.71;96381.27;1708046;84;21561;-69
2021/03/04 02:02:53;;;;;;;10.43;4.70;;;;;;;-0.98;73.43;96395.58;1707904;84;21191;-69
2021/03/04 02:05:23;;;;;;;11.77;5.93;;;;;;;-1.19;74.39;96389.55;1707983;84;21187;-69
2021/03/04 02:08:16;;;;;;;9.73;5.17;;;;;;;-1.16;73.69;96380.59;1707880;84;21164;-69
2021/03/04 02:10:52;;;;;;;9.27;4.40;;;;;;;-1.08;73.62;96375.33;1707870;84;21151;-69
2021/03/04 02:13:49;;;;;;;10.60;5.10;;;;;;;-1.07;73.54;96365.42;1708091;84;21555;-69
2021/03/04 02:16:22;;;;;;;9.83;4.57;;;;;;;-1.03;73.51;96362.52;1707835;84;21141;-69
2021/03/04 02:18:57;;;;;;;8.07;3.40;;;;;;;-1.09;74.00;96358.88;1703911;84;21306;-69
2021/03/04 02:21:51;;;;;;;7.20;4.35;;;;;;;-1.14;73.79;96347.45;1707744;83;21618;-69
2021/03/04 02:24:43;;;;;;;11.15;5.22;;;;;;;-1.18;73.57;96344.30;1707984;84;21161;-69
2021/03/04 02:27:17;;;;;;;8.77;4.77;;;;;;;-1.15;73.51;96337.06;1708028;83;21587;-69
2021/03/04 02:29:49;;;;;;;13.77;5.50;;;;;;;-1.29;73.82;96335.22;1707797;84;21128;-69
2021/03/04 02:32:21;;;;;;;11.50;5.77;;;;;;;-1.23;74.49;96340.66;1706909;84;21168;-69
2021/03/04 02:34:54;;;;;;;11.45;5.30;;;;;;;-1.29;75.32;96339.10;1707855;84;21157;-69
2021/03/04 02:37:24;;;;;;;9.48;5.42;;;;;;;-1.26;74.69;96336.66;1708262;84;21548;-69
2021/03/04 02:39:54;;;;;;;7.07;3.97;;;;;;;-1.11;74.30;96330.77;1707768;84;21168;-69
2021/03/04 02:42:24;;;;;;;10.20;4.83;;;;;;;-1.06;73.92;96320.97;1707827;84;21557;-69
2021/03/04 02:44:55;;;;;;;12.10;5.57;;;;;;;-1.14;73.98;96311.20;1708052;84;21164;-69
2021/03/04 02:47:24;;;;;;;23.67;10.33;;;;;;;-1.17;74.40;96321.45;1707925;84;21160;-69
2021/03/04 02:49:56;;;;;;;13.57;5.10;;;;;;;-1.24;73.99;96319.45;1707840;84;21177;-69
2021/03/04 02:52:24;;;;;;;8.27;4.60;;;;;;;-1.26;74.17;96312.45;1707851;84;21164;-69
2021/03/04 02:54:54;;;;;;;10.63;5.43;;;;;;;-1.16;73.93;96304.20;1707752;84;21150;-69
2021/03/04 02:57:25;;;;;;;9.23;5.27;;;;;;;-1.15;73.78;96306.86;1707650;84;21613;-69
2021/03/04 02:59:54;;;;;;;11.30;5.67;;;;;;;-1.09;74.42;96306.20;1707881;84;21144;-69
2021/03/04 03:02:23;;;;;;;9.80;4.93;;;;;;;-1.01;74.18;96294.41;1707959;84;21625;-69
2021/03/04 03:04:54;;;;;;;10.00;4.90;;;;;;;-0.99;73.74;96288.88;1707910;84;21172;-69
2021/03/04 03:07:23;;;;;;;8.30;4.57;;;;;;;-0.96;74.14;96298.47;1707849;84;21203;-69
2021/03/04 03:09:51;;;;;;;11.17;4.50;;;;;;;-1.09;74.26;96288.95;1707957;84;21460;-69
2021/03/04 03:12:19;;;;;;;10.77;5.13;;;;;;;-1.05;74.12;96291.68;1707945;84;21589;-69
2021/03/04 03:14:48;;;;;;;11.10;5.00;;;;;;;-1.07;73.67;96283.84;1707834;84;21156;-69
2021/03/04 03:17:16;;;;;;;9.23;4.53;;;;;;;-1.07;73.96;96279.95;1710892;82;21188;-69
2021/03/04 03:19:46;;;;;;;8.07;3.97;;;;;;;-1.09;74.22;96281.59;1713653;84;21144;-69
2021/03/04 03:22:13;;;;;;;9.07;4.80;;;;;;;-1.11;73.87;96279.36;1716308;84;21120;-69
2021/03/04 03:24:41;;;;;;;8.87;4.30;;;;;;;-1.10;73.91;96269.49;1715973;84;21176;-69
2021/03/04 03:27:09;;;;;;;9.93;4.67;;;;;;;-1.06;74.25;96275.66;1716615;84;21159;-69
2021/03/04 03:29:37;;;;;;;8.10;4.37;;;;;;;-1.16;73.72;96275.72;1716249;84;21148;-69
2021/03/04 03:32:07;;;;;;;9.33;4.07;;;;;;;-1.15;73.76;96272.32;1716224;84;21610;-69
2021/03/04 03:34:35;;;;;;;9.33;4.00;;;;;;;-1.25;74.36;96274.10;1716201;84;21167;-69
2021/03/04 03:37:06;;;;;;;8.57;4.30;;;;;;;-1.26;74.73;96274.91;1716220;84;21147;-69
2021/03/04 03:39:34;;;;;;;41.83;17.00;;;;;;;-1.38;74.46;96273.63;1716256;84;21147;-69
2021/03/04 03:42:06;;;;;;;12.77;6.10;;;;;;;-1.41;73.97;96270.94;1716327;84;21136;-69
2021/03/04 03:44:34;;;;;;;7.60;3.83;;;;;;;-1.43;74.71;96279.47;1716408;84;21155;-69
2021/03/04 03:47:05;;;;;;;5.53;3.10;;;;;;;-1.39;74.45;96262.79;1716078;84;21120;-69
2021/03/04 03:49:34;;;;;;;10.20;4.47;;;;;;;-1.28;74.48;96264.94;1716505;84;21164;-69
2021/03/04 03:52:02;;;;;;;8.83;4.23;;;;;;;-1.18;74.27;96265.33;1690063;84;21581;-69
2021/03/04 03:54:31;;;;;;;7.53;3.83;;;;;;;-1.14;73.89;96258.54;1716206;84;21630;-69
2021/03/04 03:57:00;;;;;;;6.50;3.23;;;;;;;-1.14;73.77;96266.30;1690097;84;21120;-69
2021/03/04 03:59:28;;;;;;;10.43;5.20;;;;;;;-1.19;74.08;96254.48;1716141;84;21183;-69
2021/03/04 04:01:57;;;;;;;11.13;4.57;;;;;;;-1.25;74.13;96262.45;1716812;84;21151;-69
2021/03/04 04:04:26;;;;;;;15.03;8.43;;;;;;;-1.25;74.36;96252.09;1716385;84;21129;-69
2021/03/04 04:06:54;;;;;;;8.47;4.40;;;;;;;-1.37;74.63;96258.98;1716309;84;21128;-69
2021/03/04 04:09:23;;;;;;;9.10;4.80;;;;;;;-1.44;74.33;96257.85;1716171;84;21156;-69
2021/03/04 04:11:51;;;;;;;9.40;4.60;;;;;;;-1.38;74.94;96249.05;1716609;84;21179;-69
2021/03/04 04:14:19;;;;;;;9.87;3.80;;;;;;;-1.42;74.86;96241.97;1716197;84;21622;-69
2021/03/04 04:16:47;;;;;;;7.67;3.73;;;;;;;-1.47;74.83;96242.22;1715612;82;21152;-69
2021/03/04 04:19:16;;;;;;;8.53;4.40;;;;;;;-1.44;75.28;96244.03;1707928;84;21136;-70
2021/03/04 04:21:44;;;;;;;16.60;7.47;;;;;;;-1.48;75.34;96244.77;1707733;84;21132;-69
2021/03/04 04:24:13;;;;;;;22.37;11.13;;;;;;;-1.39;75.13;96239.91;1707560;84;21125;-69
2021/03/04 04:26:41;;;;;;;28.60;13.27;;;;;;;-1.47;74.84;96224.09;1707836;83;21562;-69
2021/03/04 04:29:10;;;;;;;49.33;23.53;;;;;;;-1.47;74.64;96227.10;1707776;84;21180;-69
2021/03/04 04:31:39;;;;;;;123.30;48.50;;;;;;;-1.54;75.29;96229.47;1707836;84;21176;-70
2021/03/04 04:34:08;;;;;;;112.90;38.40;;;;;;;-1.49;75.78;96228.33;1707969;84;21159;-69
2021/03/04 04:36:36;;;;;;;16.37;6.67;;;;;;;-1.50;74.89;96220.11;1707983;84;21586;-69
2021/03/04 04:39:04;;;;;;;17.13;10.27;;;;;;;-1.60;74.86;96217.58;1707770;84;21125;-68
2021/03/04 04:41:33;;;;;;;9.43;4.43;;;;;;;-1.55;75.27;96212.58;1707713;84;21168;-70
2021/03/04 04:44:01;;;;;;;6.97;3.60;;;;;;;-1.52;76.19;96213.98;1707865;84;21199;-70
2021/03/04 04:46:29;;;;;;;6.33;2.83;;;;;;;-1.50;76.42;96206.29;1707911;84;21148;-70
2021/03/04 04:48:59;;;;;;;18.00;8.73;;;;;;;-1.43;75.98;96213.05;1708022;84;21176;-69
2021/03/04 04:51:32;;;;;;;50.00;21.57;;;;;;;-1.33;75.93;96205.21;1708157;84;21188;-69
2021/03/04 04:53:59;;;;;;;6.43;3.07;;;;;;;-1.34;75.99;96211.20;1708372;84;21283;-70
2021/03/04 04:56:27;;;;;;;33.73;16.00;;;;;;;-1.30;75.36;96200.14;1707920;84;21586;-69
2021/03/04 04:58:56;;;;;;;54.40;20.30;;;;;;;-1.22;75.35;96205.17;1708152;84;21164;-69
2021/03/04 05:01:25;;;;;;;10.43;5.47;;;;;;;-1.17;74.88;96202.76;1708028;84;21597;-70
2021/03/04 05:03:53;;;;;;;68.90;30.60;;;;;;;-1.16;74.94;96188.97;1708040;84;21155;-69
2021/03/04 05:06:21;;;;;;;23.27;10.27;;;;;;;-1.20;74.47;96194.47;1707982;84;21196;-69
2021/03/04 05:08:49;;;;;;;32.93;14.97;;;;;;;-1.15;74.78;96195.94;1708082;84;21187;-69
2021/03/04 05:11:17;;;;;;;9.13;4.03;;;;;;;-1.19;74.53;96194.92;1707904;84;21618;-70
2021/03/04 05:13:45;;;;;;;6.20;3.50;;;;;;;-1.24;74.31;96199.05;1708032;84;21125;-69
2021/03/04 05:16:13;;;;;;;5.57;2.90;;;;;;;-1.26;74.75;96192.05;1707922;84;21160;-69
2021/03/04 05:18:41;;;;;;;3.50;2.33;;;;;;;-1.23;74.41;96189.61;1714102;82;21188;-69
2021/03/04 05:21:11;;;;;;;4.13;2.43;;;;;;;-1.22;75.27;96175.82;1713093;84;21471;-69
2021/03/04 05:23:39;;;;;;;49.13;21.27;;;;;;;-1.22;74.59;96181.87;1716243;84;21152;-69
2021/03/04 05:26:10;;;;;;;30.97;14.67;;;;;;;-1.26;75.12;96182.61;1716220;84;21112;-68
2021/03/04 05:28:38;;;;;;;29.13;14.17;;;;;;;-1.27;74.91;96172.19;1716334;84;21612;-69
2021/03/04 05:31:06;;;;;;;6.57;2.83;;;;;;;-1.31;75.00;96173.38;1716316;84;21159;-69
2021/03/04 05:33:34;;;;;;;6.83;3.07;;;;;;;-1.24;74.97;96172.29;1716250;84;21175;-69
2021/03/04 05:36:04;;;;;;;10.87;4.53;;;;;;;-1.23;74.93;96173.66;1716692;84;21124;-69
2021/03/04 05:38:32;;;;;;;6.70;2.93;;;;;;;-1.18;75.04;96166.05;1716215;84;21140;-69
2021/03/04 05:41:00;;;;;;;604.33;217.60;;;;;;;-1.17;75.21;96172.98;1716217;84;21148;-69
2021/03/04 05:43:28;;;;;;;109.37;43.03;;;;;;;-1.08;75.33;96172.02;1716604;84;21526;-69
2021/03/04 05:45:57;;;;;;;55.93;24.90;;;;;;;-1.02;74.74;96167.47;1716350;84;21144;-69
2021/03/04 05:48:29;;;;;;;60.17;25.67;;;;;;;-1.04;74.52;96171.28;1716270;84;21199;-70
2021/03/04 05:50:59;;;;;;;60.53;27.00;;;;;;;-0.96;74.32;96172.84;1716399;84;21140;-69
2021/03/04 05:53:27;;;;;;;20.77;9.23;;;;;;;-0.84;74.00;96170.69;1716303;84;21152;-70
2021/03/04 05:56:00;;;;;;;37.63;17.77;;;;;;;-0.87;73.64;96169.29;1716199;84;21147;-70
2021/03/04 05:58:30;;;;;;;34.90;13.93;;;;;;;-0.90;74.13;96164.89;1716581;84;21149;-68
2021/03/04 06:00:59;;;;;;;63.67;25.47;;;;;;;-0.87;74.46;96158.92;1716296;84;21168;-70
2021/03/04 06:03:29;;;;;;;86.37;32.53;;;;;;;-0.89;74.91;96164.05;1690122;84;21117;-68
2021/03/04 06:05:57;;;;;;;97.87;38.20;;;;;;;-0.97;75.37;96158.14;1716295;84;21606;-70
2021/03/04 06:08:27;;;;;;;79.83;33.10;;;;;;;-0.92;75.28;96157.89;1716395;84;21159;-70
2021/03/04 06:10:55;;;;;;;52.53;23.27;;;;;;;-0.81;75.07;96156.53;1716161;84;21143;-68
2021/03/04 06:13:25;;;;;;;39.23;16.80;;;;;;;-0.79;75.13;96156.59;1716198;84;21176;-71
2021/03/04 06:15:54;;;;;;;68.73;30.13;;;;;;;-0.73;75.40;96158.09;1716272;84;21160;-68
2021/03/04 06:18:23;;;;;;;17.47;8.40;;;;;;;-0.57;74.99;96147.42;1716340;82;21203;-71
2021/03/04 06:20:51;;;;;;;25.80;11.73;;;;;;;-0.49;74.28;96154.14;1716182;84;21148;-70
2021/03/04 06:23:24;;;;;;;60.07;27.47;;;;;;;-0.40;74.60;96149.66;1716350;84;21156;-67
2021/03/04 06:25:52;;;;;;;65.00;29.30;;;;;;;-0.29;74.65;96148.31;1714604;84;21594;-68
2021/03/04 06:28:32;;;;;;;575.47;183.97;;;;;;;-0.32;74.11;96142.61;1716355;84;21172;-66
2021/03/04 06:31:01;;;;;;;118.20;40.73;;;;;;;-0.32;74.64;96148.22;1716607;84;21152;-63
2021/03/04 06:33:36;;;;;;;69.67;29.10;;;;;;;-0.28;73.89;96156.55;1716467;84;21190;-71
2021/03/04 06:36:17;;;;;;;141.90;48.97;;;;;;;-0.28;74.36;96148.77;1716436;84;21148;-68
2021/03/04 06:38:56;;;;;;;422.17;131.10;;;;;;;-0.26;73.79;96149.27;1716361;84;21497;-68
2021/03/04 06:41:26;;;;;;;181.70;59.77;;;;;;;-0.19;74.78;96151.66;1716154;84;21164;-70
2021/03/04 06:44:02;;;;;;;194.60;65.87;;;;;;;-0.07;74.44;96148.16;1716434;84;21156;-68
2021/03/04 06:46:45;;;;;;;325.93;107.83;;;;;;;0.03;73.89;96145.86;1715978;84;21132;-66
2021/03/04 06:49:13;;;;;;;200.37;67.30;;;;;;;0.21;73.53;96149.00;1716216;84;21129;-69
2021/03/04 06:51:46;;;;;;;65.60;27.13;;;;;;;0.45;73.29;96146.66;1716257;84;21176;-67
2021/03/04 06:54:27;;;;;;;179.70;63.07;;;;;;;0.64;72.50;96145.06;1716184;84;21156;-68
2021/03/04 06:57:10;;;;;;;129.73;49.07;;;;;;;0.69;72.55;96139.58;1716355;84;21144;-70
2021/03/04 06:59:44;;;;;;;116.63;44.23;;;;;;;0.77;72.56;96142.39;1716955;84;21289;-71
2021/03/04 07:02:29;;;;;;;95.60;36.67;;;;;;;0.77;73.32;96138.06;1715764;84;21140;-69
2021/03/04 07:05:03;;;;;;;75.33;33.93;;;;;;;0.81;72.82;96138.63;1716433;84;21108;-73
2021/03/04 07:07:35;;;;;;;74.80;30.00;;;;;;;0.89;72.49;96134.06;1716408;84;21147;-68
2021/03/04 07:10:04;;;;;;;96.20;40.90;;;;;;;0.90;72.28;96126.29;1716312;84;21180;-69
2021/03/04 07:12:33;;;;;;;107.33;49.33;;;;;;;0.85;72.60;96118.80;1716271;84;21171;-74
2021/03/04 07:15:02;;;;;;;166.83;67.50;;;;;;;0.86;72.34;96121.45;1716609;84;21191;-69
2021/03/04 07:17:30;;;;;;;182.90;76.10;;;;;;;0.98;72.31;96111.81;1716351;84;21180;-75
2021/03/04 07:20:02;;;;;;;266.63;115.40;;;;;;;1.09;72.33;96106.89;1716234;84;21160;-71
2021/03/04 07:22:35;;;;;;;130.87;56.17;;;;;;;1.24;71.96;96102.51;1716252;84;21594;-80
2021/03/04 07:25:06;;;;;;;68.07;33.28;;;;;;;1.30;72.07;96103.95;1716472;84;21136;-74
2021/03/04 07:27:36;;;;;;;34.83;15.77;;;;;;;1.38;70.55;96101.11;1716413;84;21148;-72
2021/03/04 07:30:14;;;;;;;20.50;10.23;;;;;;;1.46;67.71;96087.00;1715989;84;21519;-76
2021/03/04 07:32:50;;;;;;;28.53;14.47;;;;;;;1.54;68.09;96092.38;1716252;84;21140;-66
2021/03/04 07:35:21;;;;;;;33.63;17.10;;;;;;;1.68;67.57;96089.70;1716236;84;21144;-68
2021/03/04 07:37:55;;;;;;;21.33;12.80;;;;;;;1.84;67.72;96089.63;1713703;84;21152;-73
2021/03/04 07:40:33;;;;;;;27.10;13.57;;;;;;;1.90;67.82;96094.98;1691409;84;21160;-71
2021/03/04 07:43:04;;;;;;;24.57;15.17;;;;;;;1.99;68.15;96090.00;1716309;84;21148;-74
2021/03/04 07:45:39;;;;;;;37.07;19.27;;;;;;;2.05;68.56;96094.03;1716173;84;21144;-69
2021/03/04 07:48:10;;;;;;;26.43;15.97;;;;;;;2.07;68.79;96083.23;1715920;84;21159;-68
2021/03/04 07:50:42;;;;;;;58.83;29.43;;;;;;;2.18;69.22;96073.48;1716154;84;21159;-67
2021/03/04 07:53:13;;;;;;;46.90;24.10;;;;;;;2.23;68.58;96072.72;1713855;84;21171;-76
2021/03/04 07:55:41;;;;;;;47.67;25.57;;;;;;;2.26;68.37;96070.60;1716130;84;21211;-76
2021/03/04 07:58:15;;;;;;;67.30;35.10;;;;;;;2.38;68.33;96065.22;1716178;84;21182;-75
2021/03/04 08:00:43;;;;;;;;;;;;;;;2.47;67.61;96055.83;1718882;84;21172;-75
2021/03/04 08:03:11;;;;;;;45.17;23.20;;;;;;;2.53;66.89;96055.97;1716391;84;20150;-75
2021/03/04 08:05:44;;;;;;;42.43;23.07;;;;;;;2.59;66.92;96054.34;1716311;84;21192;-71
2021/03/04 08:08:21;;;;;;;44.97;22.33;;;;;;;2.69;66.54;96042.80;1716562;84;21172;-75
2021/03/04 08:10:56;;;;;;;49.77;25.00;;;;;;;2.74;66.09;96039.86;1716133;84;21169;-76
2021/03/04 08:13:40;;;;;;;42.57;20.77;;;;;;;2.85;65.18;96041.36;1716465;84;21148;-73
2021/03/04 08:16:16;;;;;;;35.97;19.60;;;;;;;2.95;64.39;96036.36;1715867;84;21147;-72
2021/03/04 08:18:58;;;;;;;34.03;16.30;;;;;;;3.07;63.64;96030.90;1719623;82;21212;-78
2021/03/04 08:21:26;;;;;;;24.13;12.90;;;;;;;3.22;64.16;96025.94;1725934;82;21140;-73
2021/03/04 08:23:54;;;;;;;30.73;15.13;;;;;;;3.40;64.29;96030.17;1725939;83;21165;-79
2021/03/04 08:26:26;;;;;;;34.53;17.40;;;;;;;3.49;63.38;96017.69;1725628;83;21622;-77
2021/03/04 08:29:12;;;;;;;41.55;21.50;;;;;;;3.65;62.71;96017.48;1725963;83;21303;-70
2021/03/04 08:31:48;;;;;;;55.03;28.93;;;;;;;3.80;63.06;96016.84;1726269;82;21132;-77
2021/03/04 08:34:16;;;;;;;51.70;24.57;;;;;;;3.89;61.66;96007.41;1725830;82;21295;-80
2021/03/04 08:36:48;;;;;;;53.23;28.50;;;;;;;4.05;62.44;96011.52;1726130;83;21129;-74
2021/03/04 08:39:20;;;;;;;34.93;18.13;;;;;;;4.19;61.58;96004.75;1726168;82;21133;-75
2021/03/04 08:41:48;;;;;;;34.37;20.23;;;;;;;4.29;62.05;96009.23;1725715;82;21298;-82
2021/03/04 08:44:18;;;;;;;39.37;19.37;;;;;;;4.36;60.62;95997.54;1725938;83;21161;-79
2021/03/04 08:46:50;;;;;;;31.83;17.77;;;;;;;4.46;60.12;95992.47;1725746;82;21294;-73
2021/03/04 08:49:20;;;;;;;30.37;16.50;;;;;;;4.59;60.61;95986.94;1725962;83;21307;-78
2021/03/04 08:51:49;;;;;;;26.93;15.47;;;;;;;4.73;60.94;95978.79;1725921;83;21559;-72
2021/03/04 08:54:27;;;;;;;27.07;15.37;;;;;;;4.86;60.16;95971.94;1725782;83;21299;-71
2021/03/04 08:57:07;;;;;;;26.47;14.57;;;;;;;5.01;60.32;95976.87;1725598;82;21275;-80
2021/03/04 08:59:36;;;;;;;29.80;16.43;;;;;;;5.10;58.63;95975.23;1726127;82;21148;-70
2021/03/04 09:02:09;;;;;;;28.90;15.80;;;;;;;5.22;59.53;95974.47;1726142;83;21156;-70
2021/03/04 09:04:37;;;;;;;18.93;9.63;;;;;;;5.40;59.78;95966.75;1725211;83;21156;-77
2021/03/04 09:07:06;;;;;;;14.73;8.00;;;;;;;5.49;55.87;95962.44;1725805;82;21303;-72
2021/03/04 09:09:34;;;;;;;27.50;11.87;;;;;;;5.56;54.18;95959.88;1726097;82;21137;-72
2021/03/04 09:12:03;;;;;;;17.40;10.57;;;;;;;5.63;55.46;95960.36;1725744;82;21157;-72
2021/03/04 09:14:33;;;;;;;20.40;11.73;;;;;;;5.76;55.91;95960.00;1725831;82;21160;-72
2021/03/04 09:17:02;;;;;;;25.13;14.23;;;;;;;5.90;55.92;95960.53;1725946;83;21157;-72
2021/03/04 09:22:12;;;;;;;33.33;18.50;;;;;;;6.25;57.11;95937.15;1824272;77;23026;-78
2021/03/04 09:24:40;;;;;;;26.67;15.87;;;;;;;6.35;56.83;95939.34;1828395;78;21279;-81
2021/03/04 09:27:13;;;;;;;34.67;18.30;;;;;;;6.42;55.09;95941.98;1792225;80;21140;-72
2021/03/04 09:29:42;;;;;;;66.80;36.77;;;;;;;6.55;55.75;95936.37;1760960;81;21571;-76
2021/03/04 09:32:12;;;;;;;65.80;42.33;;;;;;;6.70;55.54;95928.53;1770652;81;21302;-66
2021/03/04 09:34:45;;;;;;;139.23;78.63;;;;;;;6.79;53.55;95931.59;1770866;81;21583;-73
2021/03/04 09:37:24;;;;;;;84.37;45.25;;;;;;;6.87;54.58;95934.22;1770736;81;21160;-69
2021/03/04 09:40:00;;;;;;;34.87;18.07;;;;;;;7.14;53.38;95929.44;1820182;79;21539;-73
2021/03/04 09:42:39;;;;;;;21.67;13.00;;;;;;;7.25;54.19;95929.42;1793768;80;21121;-77
2021/03/04 09:45:10;;;;;;;126.10;58.50;;;;;;;7.39;52.02;95917.63;1793704;80;21119;-74
2021/03/04 09:47:45;;;;;;;68.60;37.27;;;;;;;7.53;50.28;95915.83;1793501;80;21250;-66
2021/03/04 09:50:26;;;;;;;62.40;31.53;;;;;;;7.67;51.10;95907.94;1793515;80;21258;-72
2021/03/04 09:53:04;;;;;;;86.73;43.93;;;;;;;7.80;51.11;95907.89;1793908;80;21314;-70
2021/03/04 09:55:43;;;;;;;45.30;24.00;;;;;;;7.95;51.56;95904.34;1793194;80;21128;-72
2021/03/04 09:58:21;;;;;;;40.90;24.50;;;;;;;8.17;51.20;95897.26;1793367;80;21582;-75
2021/03/04 10:01:00;;;;;;;39.03;21.47;;;;;;;8.35;51.11;95896.74;1793814;80;21144;-69
2021/03/04 10:03:35;;;;;;;37.03;21.70;;;;;;;8.53;50.66;95893.17;1791259;80;21609;-69
2021/03/04 10:06:09;;;;;;;;;;;;;;;8.71;49.81;95889.55;1796401;80;21491;-69
2021/03/04 10:08:40;;;;;;;23.60;14.50;;;;;;;8.82;46.29;95878.49;1793417;80;20256;-68
2021/03/04 10:11:12;;;;;;;22.20;12.07;;;;;;;8.94;46.79;95877.09;1793520;80;21255;-69
2021/03/04 10:13:40;;;;;;;21.97;12.80;;;;;;;9.12;47.05;95872.56;1792227;80;21251;-69
2021/03/04 10:16:11;;;;;;;30.60;15.27;;;;;;;9.25;46.02;95870.28;1793690;80;21701;-69
2021/03/04 10:18:45;;;;;;;47.90;21.83;;;;;;;9.37;45.04;95864.87;1793682;80;21156;-69
2021/03/04 10:21:18;;;;;;;14.23;7.73;;;;;;;9.41;43.67;95857.38;1793584;80;21689;-69
2021/03/04 10:23:49;;;;;;;24.77;12.87;;;;;;;9.51;42.88;95858.16;1793659;80;21140;-69
2021/03/04 10:26:17;;;;;;;25.47;12.03;;;;;;;9.63;44.76;95851.45;1793717;80;21144;-69
2021/03/04 10:28:45;;;;;;;19.73;10.37;;;;;;;9.81;44.91;95852.14;1793631;80;21254;-69
2021/03/04 10:31:14;;;;;;;37.83;15.97;;;;;;;9.95;43.31;95839.23;1793552;80;21712;-69
2021/03/04 10:33:42;;;;;;;25.33;9.93;;;;;;;10.04;42.36;95840.00;1793570;80;21125;-69
2021/03/04 10:36:12;;;;;;;61.90;23.10;;;;;;;10.22;42.77;95826.57;1793558;80;21149;-69
2021/03/04 10:38:40;;;;;;;34.93;17.03;;;;;;;10.38;40.19;95824.62;1789064;80;21267;-69
2021/03/04 10:41:09;;;;;;;26.17;12.00;;;;;;;10.49;37.80;95813.94;1780105;81;21544;-69
2021/03/04 10:43:37;;;;;;;25.53;10.17;;;;;;;10.64;36.99;95814.16;1779889;81;21133;-69
2021/03/04 10:46:05;;;;;;;23.73;10.13;;;;;;;10.85;37.86;95815.58;1779793;81;21113;-69
2021/03/04 10:48:34;;;;;;;15.90;8.03;;;;;;;11.08;35.90;95804.17;1779896;81;21148;-69
2021/03/04 10:51:02;;;;;;;25.77;12.07;;;;;;;11.38;37.24;95795.28;1779688;81;21144;-69
2021/03/04 10:53:32;;;;;;;10.13;5.77;;;;;;;11.77;38.07;95791.44;1779162;81;21287;-69
2021/03/04 10:56:01;;;;;;;12.67;5.07;;;;;;;12.48;35.04;95780.27;1779365;81;21101;-69
2021/03/04 10:58:30;;;;;;;10.33;5.93;;;;;;;13.25;31.66;95773.94;1779232;81;21129;-69
2021/03/04 11:00:58;;;;;;;11.33;5.00;;;;;;;13.72;32.44;95764.34;1779652;81;21128;-69
2021/03/04 11:03:26;;;;;;;11.73;5.13;;;;;;;14.32;31.02;95752.83;1779634;81;21093;-69
2021/03/04 11:05:56;;;;;;;14.27;6.17;;;;;;;14.79;31.56;95750.50;1779329;81;21133;-69
2021/03/04 11:08:27;;;;;;;22.93;9.27;;;;;;;15.26;28.61;95743.17;1779314;81;21165;-69
2021/03/04 11:10:55;;;;;;;10.13;4.93;;;;;;;15.63;26.61;95740.55;1779306;81;21132;-69
2021/03/04 11:13:23;;;;;;;22.93;9.43;;;;;;;16.04;28.26;95731.53;1779273;81;21732;-69
2021/03/04 11:15:53;;;;;;;8.53;4.60;;;;;;;16.38;26.02;95721.80;1779136;81;21263;-69
2021/03/04 11:18:22;;;;;;;7.35;4.42;;;;;;;16.62;26.84;95719.46;1779295;81;21137;-69
2021/03/04 11:20:51;;;;;;;3.08;2.00;;;;;;;16.56;22.40;95699.75;1779553;81;21124;-69
2021/03/04 11:23:19;;;;;;;3.67;1.90;;;;;;;16.48;19.58;95696.97;1779422;81;21263;-70
2021/03/04 11:25:49;;;;;;;10.15;5.70;;;;;;;16.53;19.20;95690.55;1777711;80;21125;-69
2021/03/04 11:28:18;;;;;;;2.77;1.62;;;;;;;16.50;19.34;95694.64;1779319;81;21888;-69
2021/03/04 11:30:47;;;;;;;1.42;1.22;;;;;;;16.00;17.49;95690.41;1779616;81;21117;-69
2021/03/04 11:33:15;;;;;;;6.75;5.30;;;;;;;15.84;19.54;95689.70;1779611;81;21532;-70
2021/03/04 11:35:44;;;;;;;10.70;6.17;;;;;;;15.64;18.37;95688.61;1779099;81;21132;-69
2021/03/04 11:38:17;;;;;;;;;;;;;;;15.32;18.80;95690.67;1782137;80;21102;-69
2021/03/04 11:40:45;;;;;;;3.43;2.43;;;;;;;15.19;20.10;95682.70;1779635;81;20152;-69
2021/03/04 11:43:13;;;;;;;3.03;2.10;;;;;;;15.22;19.54;95680.39;1779382;81;21113;-69
2021/03/04 11:45:42;;;;;;;3.67;2.33;;;;;;;15.27;20.68;95677.11;1779471;81;21286;-69